Time;durP1;ratioP1;P1;durP2;ratioP2;P2;SDS_P1;SDS_P2;PMS_P1;PMS_P2;Temp;Humidity;BMP_temperature;BMP_pressure;BME280_temperature;BME280_humidity;BME280_pressure;Samples;Min_cycle;Max_cycle;Signal;HPM_P1;HPM_P2
2023/09/17 00:00:22;;;;;;;;;;;22.30;94.40;;;;;;5054197;28;19909;-51
2023/09/17 00:02:47;;;;;;;;;;;22.30;94.40;;;;;;5053818;28;19909;-52
2023/09/17 00:05:13;;;;;;;;;;;22.30;94.40;;;;;;5054491;28;19909;-49
2023/09/17 00:07:39;;;;;;;;;;;22.30;94.40;;;;;;5054016;28;20279;-50
2023/09/17 00:10:05;;;;;;;;;;;22.30;94.40;;;;;;5054388;28;19913;-49
2023/09/17 00:12:30;;;;;;;;;;;22.30;94.40;;;;;;5053956;28;19909;-51
2023/09/17 00:14:56;;;;;;;;;;;22.30;94.40;;;;;;5054259;28;19915;-51
2023/09/17 00:17:22;;;;;;;;;;;22.30;94.40;;;;;;5054152;28;19916;-50
2023/09/17 00:19:48;;;;;;;;;;;22.30;94.40;;;;;;5053992;28;19908;-51
2023/09/17 00:22:14;;;;;;;;;;;22.30;94.40;;;;;;5054123;28;19963;-50
2023/09/17 00:24:40;;;;;;;;;;;22.30;94.30;;;;;;5054169;28;19915;-50
2023/09/17 00:27:06;;;;;;;;;;;22.30;94.30;;;;;;5035901;28;19971;-48
2023/09/17 00:29:31;;;;;;;;;;;22.30;94.30;;;;;;5053806;28;19913;-48
2023/09/17 00:31:57;;;;;;;;;;;22.30;94.30;;;;;;5054263;28;19909;-53
2023/09/17 00:34:22;;;;;;;;;;;22.30;94.30;;;;;;5053953;28;19912;-51
2023/09/17 00:36:48;;;;;;;;;;;22.30;94.30;;;;;;5053681;28;19913;-50
2023/09/17 00:39:13;;;;;;;;;;;22.30;94.30;;;;;;5053930;28;19912;-49
2023/09/17 00:41:39;;;;;;;;;;;22.30;94.30;;;;;;5053648;28;19920;-50
2023/09/17 00:44:04;;;;;;;;;;;22.30;94.30;;;;;;5053663;28;20477;-50
2023/09/17 00:46:30;;;;;;;;;;;22.30;94.30;;;;;;5054160;28;19913;-50
2023/09/17 00:48:56;;;;;;;;;;;22.30;94.30;;;;;;5053822;28;19970;-52
2023/09/17 00:51:21;;;;;;;;;;;22.30;94.30;;;;;;5053462;28;19908;-48
2023/09/17 00:53:47;;;;;;;;;;;22.30;94.30;;;;;;5036003;28;19962;-50
2023/09/17 00:56:13;;;;;;;;;;;22.30;94.20;;;;;;5036051;28;20264;-50
2023/09/17 00:58:39;;;;;;;;;;;22.30;94.20;;;;;;5054116;28;20367;-48
2023/09/17 01:01:06;;;;;;;;;;;22.30;94.50;;;;;;5053769;28;20352;-49
2023/09/17 01:03:31;;;;;;;;;;;22.30;94.20;;;;;;5053892;28;19913;-49
2023/09/17 01:05:58;;;;;;;;;;;22.30;94.20;;;;;;5053395;28;19954;-53
2023/09/17 01:08:24;;;;;;;;;;;22.30;94.20;;;;;;5053548;28;19924;-49
2023/09/17 01:10:53;;;;;;;;;;;22.30;94.20;;;;;;5054055;28;19912;-51
2023/09/17 01:13:19;;;;;;;;;;;22.30;94.20;;;;;;5053404;28;19909;-50
2023/09/17 01:15:44;;;;;;;;;;;22.30;94.20;;;;;;5057025;28;20371;-49
2023/09/17 01:18:10;;;;;;;;;;;22.30;94.20;;;;;;5057401;28;19909;-51
2023/09/17 01:20:44;;;;;;;;;;;22.30;94.20;;;;;;5057709;28;19952;-52
2023/09/17 01:23:15;;;;;;;;;;;22.30;94.20;;;;;;5057412;28;19908;-50
2023/09/17 01:25:48;;;;;;;;;;;22.30;94.20;;;;;;5056465;28;19908;-51
2023/09/17 01:28:13;;;;;;;;;;;22.20;94.20;;;;;;5057244;28;20019;-52
2023/09/17 01:30:41;;;;;;;;;;;22.30;94.20;;;;;;5057490;28;19951;-50
2023/09/17 01:33:09;;;;;;;;;;;22.30;94.20;;;;;;5057425;28;19912;-50
2023/09/17 01:35:39;;;;;;;;;;;22.30;94.10;;;;;;5057103;28;19916;-50
2023/09/17 01:38:06;;;;;;;;;;;22.30;94.40;;;;;;5057235;28;20351;-50
2023/09/17 01:40:33;;;;;;;;;;;22.30;94.10;;;;;;5057356;28;19915;-53
2023/09/17 01:43:00;;;;;;;;;;;22.30;94.10;;;;;;5057567;28;19917;-49
2023/09/17 01:45:27;;;;;;;;;;;22.30;94.10;;;;;;5057092;28;19916;-50
2023/09/17 01:47:54;;;;;;;;;;;22.30;94.10;;;;;;5056926;28;19921;-53
2023/09/17 01:50:23;;;;;;;;;;;22.30;94.10;;;;;;5057067;28;19913;-52
2023/09/17 01:52:48;;;;;;;;;;;22.30;94.10;;;;;;5057055;28;20264;-49
2023/09/17 01:55:14;;;;;;;;;;;22.30;94.10;;;;;;5057049;28;19909;-51
2023/09/17 01:57:40;;;;;;;;;;;22.20;94.10;;;;;;5056717;28;19909;-51
2023/09/17 02:00:16;;;;;;;;;;;22.30;94.10;;;;;;5056661;28;19936;-51
2023/09/17 02:02:49;;;;;;;;;;;22.20;94.10;;;;;;5056646;28;19913;-52
2023/09/17 02:05:20;;;;;;;;;;;22.30;94.10;;;;;;5056842;28;20367;-50
2023/09/17 02:07:46;;;;;;;;;;;22.30;94.10;;;;;;5056856;28;20015;-53
2023/09/17 02:10:12;;;;;;;;;;;22.30;94.10;;;;;;5057062;28;19960;-51
2023/09/17 02:12:38;;;;;;;;;;;22.30;94.10;;;;;;5056677;28;19916;-52
2023/09/17 02:15:09;;;;;;;;;;;22.30;94.10;;;;;;5056434;28;19955;-53
2023/09/17 02:17:34;;;;;;;;;;;22.30;94.10;;;;;;5056312;28;19951;-49
2023/09/17 02:20:00;;;;;;;;;;;22.30;94.30;;;;;;5056309;28;19909;-47
2023/09/17 02:22:25;;;;;;;;;;;22.30;94.10;;;;;;5056233;28;19915;-52
2023/09/17 02:24:51;;;;;;;;;;;22.30;94.10;;;;;;5055955;28;19916;-52
2023/09/17 02:27:16;;;;;;;;;;;22.20;94.00;;;;;;5056288;28;19916;-48
2023/09/17 02:29:43;;;;;;;;;;;22.30;94.10;;;;;;5038646;28;19913;-51
2023/09/17 02:32:10;;;;;;;;;;;22.30;94.10;;;;;;5056236;28;20435;-50
2023/09/17 02:34:37;;;;;;;;;;;22.30;94.10;;;;;;5055958;28;19909;-50
2023/09/17 02:37:02;;;;;;;;;;;22.20;94.00;;;;;;5056065;28;19916;-52
2023/09/17 02:39:28;;;;;;;;;;;22.30;94.30;;;;;;5055939;28;19908;-52
2023/09/17 02:41:53;;;;;;;;;;;22.30;94.00;;;;;;5056164;28;19909;-52
2023/09/17 02:44:20;;;;;;;;;;;22.30;94.00;;;;;;5055885;28;20402;-48
2023/09/17 02:46:46;;;;;;;;;;;22.30;94.00;;;;;;5056294;28;19909;-50
2023/09/17 02:49:11;;;;;;;;;;;22.30;94.00;;;;;;5056207;28;20272;-50
2023/09/17 02:51:37;;;;;;;;;;;22.20;94.00;;;;;;5055918;28;19955;-51
2023/09/17 02:54:03;;;;;;;;;;;22.20;94.00;;;;;;5038144;28;19909;-49
2023/09/17 02:56:29;;;;;;;;;;;22.20;94.00;;;;;;5055927;28;19913;-49
2023/09/17 02:58:54;;;;;;;;;;;22.20;94.00;;;;;;5055809;28;19912;-51
2023/09/17 03:01:20;;;;;;;;;;;22.20;94.00;;;;;;5055802;28;19916;-53
2023/09/17 03:03:46;;;;;;;;;;;22.20;94.00;;;;;;5055747;28;19908;-51
2023/09/17 03:06:11;;;;;;;;;;;22.20;94.00;;;;;;5055773;28;19909;-51
2023/09/17 03:08:41;;;;;;;;;;;22.20;94.00;;;;;;5055554;28;19916;-53
2023/09/17 03:11:17;;;;;;;;;;;22.20;94.00;;;;;;5055540;28;19913;-47
2023/09/17 03:13:46;;;;;;;;;;;22.20;94.00;;;;;;5055450;28;19909;-47
2023/09/17 03:16:15;;;;;;;;;;;22.20;94.00;;;;;;5055489;28;19908;-48
2023/09/17 03:18:43;;;;;;;;;;;22.20;94.00;;;;;;5054231;28;20256;-51
2023/09/17 03:21:09;;;;;;;;;;;22.20;94.00;;;;;;5055185;28;19920;-51
2023/09/17 03:23:35;;;;;;;;;;;22.20;94.00;;;;;;5055258;28;19913;-49
2023/09/17 03:26:01;;;;;;;;;;;22.20;94.00;;;;;;5055338;28;19971;-53
2023/09/17 03:28:27;;;;;;;;;;;22.20;94.00;;;;;;5055157;28;19921;-51
2023/09/17 03:30:53;;;;;;;;;;;22.20;94.00;;;;;;5054888;28;19913;-50
2023/09/17 03:33:18;;;;;;;;;;;22.20;94.00;;;;;;5054852;28;19912;-50
2023/09/17 03:35:44;;;;;;;;;;;22.20;94.00;;;;;;5055206;28;19915;-50
2023/09/17 03:38:09;;;;;;;;;;;22.20;94.00;;;;;;5054161;28;20383;-48
2023/09/17 03:40:35;;;;;;;;;;;22.20;94.00;;;;;;5054623;28;19915;-52
2023/09/17 03:43:00;;;;;;;;;;;22.20;94.00;;;;;;5054954;28;20343;-52
2023/09/17 03:45:26;;;;;;;;;;;22.20;94.00;;;;;;5054588;28;19909;-50
2023/09/17 03:47:52;;;;;;;;;;;22.20;94.00;;;;;;5054438;28;19970;-50
2023/09/17 03:50:17;;;;;;;;;;;22.20;94.00;;;;;;5055082;28;19931;-52
2023/09/17 03:52:45;;;;;;;;;;;22.20;94.20;;;;;;5054300;28;20367;-52
2023/09/17 03:55:11;;;;;;;;;;;22.20;94.00;;;;;;5054241;28;19908;-51
2023/09/17 03:57:37;;;;;;;;;;;22.20;94.00;;;;;;5054380;28;20007;-51
2023/09/17 04:00:06;;;;;;;;;;;22.20;93.90;;;;;;5054618;28;19916;-48
2023/09/17 04:02:32;;;;;;;;;;;22.20;93.90;;;;;;5054592;28;20356;-53
2023/09/17 04:04:58;;;;;;;;;;;22.20;93.90;;;;;;5054330;28;19919;-54
2023/09/17 04:07:23;;;;;;;;;;;22.20;93.90;;;;;;5054205;28;20015;-48
2023/09/17 04:09:49;;;;;;;;;;;22.20;93.90;;;;;;5054514;28;19924;-49
2023/09/17 04:12:14;;;;;;;;;;;22.20;93.90;;;;;;5054506;28;20370;-48
2023/09/17 04:14:40;;;;;;;;;;;22.20;93.90;;;;;;5036623;28;19909;-54
2023/09/17 04:17:06;;;;;;;;;;;22.20;93.90;;;;;;5054090;28;20012;-49
2023/09/17 04:19:32;;;;;;;;;;;22.20;93.90;;;;;;5054257;28;19909;-48
2023/09/17 04:21:58;;;;;;;;;;;22.20;93.90;;;;;;5053922;28;19955;-48
2023/09/17 04:24:23;;;;;;;;;;;22.20;93.90;;;;;;5054586;28;19916;-51
2023/09/17 04:26:49;;;;;;;;;;;22.20;93.90;;;;;;5053851;28;20031;-53
2023/09/17 04:29:14;;;;;;;;;;;22.20;93.90;;;;;;5053819;28;19913;-50
2023/09/17 04:31:40;;;;;;;;;;;22.20;93.90;;;;;;5053899;28;19909;-48
2023/09/17 04:34:05;;;;;;;;;;;22.20;94.00;;;;;;5053946;28;19909;-48
2023/09/17 04:36:31;;;;;;;;;;;22.20;94.00;;;;;;5054397;28;20412;-51
2023/09/17 04:38:56;;;;;;;;;;;22.20;94.00;;;;;;5053728;28;19915;-49
2023/09/17 04:41:22;;;;;;;;;;;22.20;93.90;;;;;;5054038;28;20394;-48
2023/09/17 04:43:47;;;;;;;;;;;22.20;93.90;;;;;;5053955;28;19909;-50
2023/09/17 04:46:12;;;;;;;;;;;22.20;93.90;;;;;;5053825;28;19908;-53
2023/09/17 04:48:38;;;;;;;;;;;22.20;93.90;;;;;;5053139;28;20363;-51
2023/09/17 04:51:05;;;;;;;;;;;22.10;93.90;;;;;;5053810;28;19913;-48
2023/09/17 04:53:30;;;;;;;;;;;22.20;93.90;;;;;;5053546;28;19916;-52
2023/09/17 04:55:56;;;;;;;;;;;22.20;93.90;;;;;;5053848;28;19909;-54
2023/09/17 04:58:21;;;;;;;;;;;22.20;94.00;;;;;;5053584;28;19967;-49
2023/09/17 05:00:47;;;;;;;;;;;22.10;93.90;;;;;;5053811;28;19939;-51
2023/09/17 05:03:12;;;;;;;;;;;22.10;93.90;;;;;;5053510;28;19909;-52
2023/09/17 05:05:38;;;;;;;;;;;22.20;93.90;;;;;;5053498;28;19938;-52
2023/09/17 05:08:03;;;;;;;;;;;22.10;93.90;;;;;;5053347;28;19913;-50
2023/09/17 05:10:29;;;;;;;;;;;22.10;93.90;;;;;;5053691;28;20346;-49
2023/09/17 05:12:56;;;;;;;;;;;22.10;93.90;;;;;;5053784;28;19916;-52
2023/09/17 05:15:22;;;;;;;;;;;22.10;93.90;;;;;;5053691;28;19916;-54
2023/09/17 05:17:47;;;;;;;;;;;22.10;93.90;;;;;;5053977;28;19910;-49
2023/09/17 05:20:13;;;;;;;;;;;22.10;93.90;;;;;;5053679;28;19923;-50
2023/09/17 05:22:38;;;;;;;;;;;22.10;93.90;;;;;;5053636;28;19913;-50
2023/09/17 05:25:08;;;;;;;;;;;22.10;93.90;;;;;;5053219;28;19909;-52
2023/09/17 05:27:33;;;;;;;;;;;22.10;93.90;;;;;;5053422;28;19952;-53
2023/09/17 05:29:59;;;;;;;;;;;22.10;93.90;;;;;;5053560;28;19924;-49
2023/09/17 05:32:25;;;;;;;;;;;22.10;93.90;;;;;;5053405;28;20344;-49
2023/09/17 05:34:50;;;;;;;;;;;22.10;93.90;;;;;;5053385;28;19992;-53
2023/09/17 05:37:16;;;;;;;;;;;22.10;94.00;;;;;;5053528;28;20259;-52
2023/09/17 05:39:41;;;;;;;;;;;22.10;94.00;;;;;;5053511;28;20375;-51
2023/09/17 05:42:07;;;;;;;;;;;22.10;94.00;;;;;;5053161;28;20356;-52
2023/09/17 05:44:33;;;;;;;;;;;22.10;94.00;;;;;;5053414;28;19955;-48
2023/09/17 05:46:58;;;;;;;;;;;22.10;94.00;;;;;;5053349;28;20007;-49
2023/09/17 05:49:24;;;;;;;;;;;22.10;94.00;;;;;;5053505;28;20341;-49
2023/09/17 05:51:49;;;;;;;;;;;22.10;94.10;;;;;;5053048;28;20359;-51
2023/09/17 05:54:15;;;;;;;;;;;22.10;94.10;;;;;;5053185;28;19931;-53
2023/09/17 05:56:40;;;;;;;;;;;22.10;94.10;;;;;;5053218;28;19963;-51
2023/09/17 05:59:05;;;;;;;;;;;22.10;94.30;;;;;;5053274;28;19908;-53
2023/09/17 06:01:31;;;;;;;;;;;22.10;94.10;;;;;;5056179;28;19909;-49
2023/09/17 06:03:57;;;;;;;;;;;22.10;94.10;;;;;;5056756;28;19909;-51
2023/09/17 06:06:22;;;;;;;;;;;22.10;94.10;;;;;;5056663;28;19962;-51
2023/09/17 06:08:50;;;;;;;;;;;22.10;94.10;;;;;;5055392;28;19981;-52
2023/09/17 06:11:17;;;;;;;;;;;22.10;94.10;;;;;;5056356;28;19915;-50
2023/09/17 06:13:43;;;;;;;;;;;22.00;94.10;;;;;;5056220;28;20354;-53
2023/09/17 06:16:08;;;;;;;;;;;22.00;94.10;;;;;;5056595;28;19999;-50
2023/09/17 06:18:34;;;;;;;;;;;22.00;94.10;;;;;;5056184;28;20310;-53
2023/09/17 06:20:59;;;;;;;;;;;22.00;94.10;;;;;;5056415;28;20011;-54
2023/09/17 06:23:25;;;;;;;;;;;22.00;94.10;;;;;;5056481;28;19952;-52
2023/09/17 06:25:50;;;;;;;;;;;22.00;94.10;;;;;;5056609;28;19951;-49
2023/09/17 06:28:16;;;;;;;;;;;22.00;94.10;;;;;;5056150;28;19924;-50
2023/09/17 06:30:42;;;;;;;;;;;22.00;94.10;;;;;;5049279;28;19939;-48
2023/09/17 06:33:08;;;;;;;;;;;22.00;94.20;;;;;;5041376;28;20327;-49
2023/09/17 06:35:33;;;;;;;;;;;22.00;94.20;;;;;;5036119;28;19916;-49
2023/09/17 06:37:59;;;;;;;;;;;22.00;94.20;;;;;;5036177;28;19921;-49
2023/09/17 06:40:24;;;;;;;;;;;22.00;94.20;;;;;;5048309;28;20284;-49
2023/09/17 06:42:50;;;;;;;;;;;22.00;94.20;;;;;;5036379;28;20031;-52
2023/09/17 06:45:15;;;;;;;;;;;22.00;94.20;;;;;;5046148;28;19909;-51
2023/09/17 06:47:40;;;;;;;;;;;22.00;94.20;;;;;;5052007;28;20572;-51
2023/09/17 06:50:07;;;;;;;;;;;22.00;94.30;;;;;;5055953;28;19908;-51
2023/09/17 06:52:33;;;;;;;;;;;22.00;94.30;;;;;;5055659;28;20294;-50
2023/09/17 06:54:58;;;;;;;;;;;22.00;94.30;;;;;;5039314;28;19979;-53
2023/09/17 06:57:24;;;;;;;;;;;22.00;94.40;;;;;;5039413;28;20370;-51
2023/09/17 06:59:49;;;;;;;;;;;22.00;93.80;;;;;;5035695;28;19913;-52
2023/09/17 07:02:15;;;;;;;;;;;22.00;93.20;;;;;;5035193;28;19960;-49
2023/09/17 07:04:40;;;;;;;;;;;22.00;92.90;;;;;;5035517;28;19963;-53
2023/09/17 07:07:06;;;;;;;;;;;22.00;92.90;;;;;;5034591;28;20338;-52
2023/09/17 07:09:32;;;;;;;;;;;22.00;93.20;;;;;;5017904;28;20003;-52
2023/09/17 07:11:57;;;;;;;;;;;22.00;93.30;;;;;;5036801;28;19913;-49
2023/09/17 07:14:23;;;;;;;;;;;22.00;93.40;;;;;;5035451;28;20348;-51
2023/09/17 07:16:49;;;;;;;;;;;22.00;93.50;;;;;;5036559;28;20272;-50
2023/09/17 07:19:15;;;;;;;;;;;22.00;93.60;;;;;;5044403;28;19958;-51
2023/09/17 07:21:42;;;;;;;;;;;22.00;93.70;;;;;;5019027;28;19963;-52
2023/09/17 07:24:08;;;;;;;;;;;22.00;93.80;;;;;;5036474;28;19913;-51
2023/09/17 07:26:33;;;;;;;;;;;22.00;93.80;;;;;;5020088;28;19919;-52
2023/09/17 07:28:58;;;;;;;;;;;22.00;93.60;;;;;;5039120;28;20278;-51
2023/09/17 07:31:24;;;;;;;;;;;22.00;93.30;;;;;;5040926;28;19925;-49
2023/09/17 07:33:49;;;;;;;;;;;22.00;93.30;;;;;;5015917;28;20009;-49
2023/09/17 07:36:15;;;;;;;;;;;22.00;93.40;;;;;;5033849;28;19921;-53
2023/09/17 07:38:40;;;;;;;;;;;22.00;93.50;;;;;;5033335;28;19952;-49
2023/09/17 07:41:06;;;;;;;;;;;22.00;93.60;;;;;;5034769;28;20375;-52
2023/09/17 07:43:31;;;;;;;;;;;22.00;93.70;;;;;;5034771;28;19916;-52
2023/09/17 07:45:57;;;;;;;;;;;22.00;93.80;;;;;;5034476;28;19976;-49
2023/09/17 07:48:24;;;;;;;;;;;22.00;93.90;;;;;;5034510;28;19921;-52
2023/09/17 07:50:59;;;;;;;;;;;22.00;93.90;;;;;;5034564;28;19920;-51
2023/09/17 07:53:25;;;;;;;;;;;22.00;94.00;;;;;;5034645;28;20356;-51
2023/09/17 07:55:50;;;;;;;;;;;22.00;94.00;;;;;;5034478;28;20046;-49
2023/09/17 07:58:16;;;;;;;;;;;22.00;94.00;;;;;;5034251;28;20011;-52
2023/09/17 08:00:45;;;;;;;;;;;22.00;94.10;;;;;;5034268;28;19925;-52
2023/09/17 08:03:15;;;;;;;;;;;22.00;94.10;;;;;;5034484;28;19998;-52
2023/09/17 08:05:43;;;;;;;;;;;22.00;94.10;;;;;;5034302;28;19910;-51
2023/09/17 08:08:08;;;;;;;;;;;22.00;94.10;;;;;;5034432;28;19913;-52
2023/09/17 08:10:35;;;;;;;;;;;22.00;94.10;;;;;;5034313;28;20355;-49
2023/09/17 08:13:01;;;;;;;;;;;22.00;94.10;;;;;;5033968;28;19916;-52
2023/09/17 08:15:27;;;;;;;;;;;22.00;94.10;;;;;;5034309;28;19909;-52
2023/09/17 08:17:53;;;;;;;;;;;22.00;94.10;;;;;;5016444;28;20353;-54
2023/09/17 08:20:19;;;;;;;;;;;22.00;94.10;;;;;;5034185;28;19919;-51
2023/09/17 08:22:45;;;;;;;;;;;22.00;94.10;;;;;;5033457;28;19909;-51
2023/09/17 08:25:11;;;;;;;;;;;22.00;94.10;;;;;;5032997;28;19916;-49
2023/09/17 08:27:37;;;;;;;;;;;22.00;94.20;;;;;;5034187;28;20004;-51
2023/09/17 08:30:04;;;;;;;;;;;22.00;94.20;;;;;;5034542;28;20280;-49
2023/09/17 08:32:30;;;;;;;;;;;22.00;94.20;;;;;;5033766;28;20356;-52
2023/09/17 08:34:55;;;;;;;;;;;22.00;94.20;;;;;;5033989;28;19931;-52
2023/09/17 08:37:22;;;;;;;;;;;22.00;94.20;;;;;;5033750;28;20012;-50
2023/09/17 08:39:48;;;;;;;;;;;22.00;94.20;;;;;;5034003;28;20352;-53
2023/09/17 08:42:14;;;;;;;;;;;22.00;94.20;;;;;;5033819;28;19909;-51
2023/09/17 08:44:41;;;;;;;;;;;22.00;94.20;;;;;;5033905;28;19913;-51
2023/09/17 08:47:07;;;;;;;;;;;22.00;94.20;;;;;;5033755;28;20034;-51
2023/09/17 08:49:32;;;;;;;;;;;22.00;94.20;;;;;;5034047;28;20364;-53
2023/09/17 08:52:01;;;;;;;;;;;22.00;94.20;;;;;;5033592;28;19909;-52
2023/09/17 08:54:36;;;;;;;;;;;22.00;94.20;;;;;;5033956;28;19971;-50
2023/09/17 08:57:03;;;;;;;;;;;22.00;94.20;;;;;;5033608;28;19909;-53
2023/09/17 08:59:29;;;;;;;;;;;22.00;94.20;;;;;;5033668;28;20356;-49
2023/09/17 09:01:56;;;;;;;;;;;22.00;94.20;;;;;;5033719;28;19909;-50
2023/09/17 09:04:22;;;;;;;;;;;22.00;94.20;;;;;;5032145;28;19913;-49
2023/09/17 09:06:48;;;;;;;;;;;22.00;94.20;;;;;;5033343;28;19967;-52
2023/09/17 09:09:14;;;;;;;;;;;22.00;94.20;;;;;;5034690;28;19928;-49
2023/09/17 09:11:40;;;;;;;;;;;22.00;94.20;;;;;;5033820;28;20141;-49
2023/09/17 09:14:06;;;;;;;;;;;22.00;94.10;;;;;;5015135;28;19962;-51
2023/09/17 09:16:33;;;;;;;;;;;22.00;94.10;;;;;;5033279;28;20356;-54
2023/09/17 09:18:59;;;;;;;;;;;22.00;94.10;;;;;;5031781;28;19920;-53
2023/09/17 09:21:24;;;;;;;;;;;22.00;94.10;;;;;;5033598;28;20392;-54
2023/09/17 09:23:50;;;;;;;;;;;22.00;94.10;;;;;;5033348;28;19947;-52
2023/09/17 09:26:15;;;;;;;;;;;22.00;94.10;;;;;;5033691;28;20379;-50
2023/09/17 09:28:41;;;;;;;;;;;22.00;94.10;;;;;;5033343;28;19919;-54
2023/09/17 09:31:07;;;;;;;;;;;22.00;94.10;;;;;;5033390;28;19913;-53
2023/09/17 09:33:33;;;;;;;;;;;22.00;94.10;;;;;;5033285;28;20368;-52
2023/09/17 09:36:00;;;;;;;;;;;22.00;94.10;;;;;;5035489;28;19956;-50
2023/09/17 09:38:25;;;;;;;;;;;22.00;94.10;;;;;;5037229;28;20260;-54
2023/09/17 09:40:51;;;;;;;;;;;22.00;94.10;;;;;;5037061;28;19991;-51
2023/09/17 09:43:32;;;;;;;;;;;22.00;94.10;;;;;;5037279;28;19909;-53
2023/09/17 09:46:04;;;;;;;;;;;22.00;94.10;;;;;;5037199;28;19909;-52
2023/09/17 09:48:36;;;;;;;;;;;22.00;94.10;;;;;;5036603;28;19925;-52
2023/09/17 09:51:02;;;;;;;;;;;22.00;94.10;;;;;;5037743;28;19913;-51
2023/09/17 09:53:28;;;;;;;;;;;22.00;94.10;;;;;;5034071;28;19996;-50
2023/09/17 09:55:55;;;;;;;;;;;22.00;94.10;;;;;;5035815;28;20424;-52
2023/09/17 09:58:20;;;;;;;;;;;22.00;94.10;;;;;;5036492;28;19909;-52
2023/09/17 10:00:46;;;;;;;;;;;22.00;94.10;;;;;;5038756;28;20111;-48
2023/09/17 10:03:12;;;;;;;;;;;22.00;94.10;;;;;;5053890;28;20019;-51
2023/09/17 10:05:40;;;;;;;;;;;22.00;94.10;;;;;;5042708;28;19909;-50
2023/09/17 10:08:09;;;;;;;;;;;22.00;94.10;;;;;;5036582;28;19917;-52
2023/09/17 10:10:35;;;;;;;;;;;22.00;94.10;;;;;;5036790;28;19913;-50
2023/09/17 10:13:04;;;;;;;;;;;22.00;94.10;;;;;;5036311;28;19916;-53
2023/09/17 10:15:30;;;;;;;;;;;22.00;94.10;;;;;;5036508;28;20298;-52
2023/09/17 10:17:56;;;;;;;;;;;22.00;94.10;;;;;;5036467;28;19931;-51
2023/09/17 10:20:22;;;;;;;;;;;22.00;94.20;;;;;;5036374;28;20279;-50
2023/09/17 10:22:48;;;;;;;;;;;22.00;94.20;;;;;;5036698;28;19913;-49
2023/09/17 10:25:14;;;;;;;;;;;22.00;94.20;;;;;;5041058;28;20308;-48
2023/09/17 10:27:41;;;;;;;;;;;22.00;94.20;;;;;;5056200;28;19912;-48
2023/09/17 10:30:07;;;;;;;;;;;22.00;94.20;;;;;;5053846;28;19917;-51
2023/09/17 10:32:33;;;;;;;;;;;22.00;94.20;;;;;;5038355;28;19912;-52
2023/09/17 10:34:59;;;;;;;;;;;22.00;94.30;;;;;;5044405;28;20334;-48
2023/09/17 10:37:26;;;;;;;;;;;22.00;94.20;;;;;;5044249;28;19996;-54
2023/09/17 10:39:52;;;;;;;;;;;22.00;94.30;;;;;;5052638;28;20368;-49
2023/09/17 10:42:19;;;;;;;;;;;22.00;94.30;;;;;;5054095;28;19912;-51
2023/09/17 10:44:46;;;;;;;;;;;22.00;94.30;;;;;;5047432;28;19913;-52
2023/09/17 10:47:12;;;;;;;;;;;22.00;94.30;;;;;;5035245;28;20005;-48
2023/09/17 10:49:38;;;;;;;;;;;22.00;94.20;;;;;;5055813;28;19909;-53
2023/09/17 10:52:05;;;;;;;;;;;22.00;94.20;;;;;;5055946;28;19909;-50
2023/09/17 10:54:31;;;;;;;;;;;22.00;94.20;;;;;;5052855;28;20351;-49
2023/09/17 10:56:57;;;;;;;;;;;22.00;94.20;;;;;;5055998;28;20347;-53
2023/09/17 10:59:23;;;;;;;;;;;22.00;94.20;;;;;;5054511;28;19913;-50
2023/09/17 11:01:49;;;;;;;;;;;22.00;94.20;;;;;;5055370;28;19912;-50
2023/09/17 11:04:16;;;;;;;;;;;22.00;94.20;;;;;;5051155;28;19920;-53
2023/09/17 11:06:43;;;;;;;;;;;22.00;94.20;;;;;;5047603;28;20266;-52
2023/09/17 11:09:09;;;;;;;;;;;22.00;94.20;;;;;;5017356;28;19936;-51
2023/09/17 11:11:35;;;;;;;;;;;22.00;94.20;;;;;;5035478;28;20349;-48
2023/09/17 11:14:02;;;;;;;;;;;22.00;94.20;;;;;;5042618;28;19920;-49
2023/09/17 11:16:29;;;;;;;;;;;22.00;94.20;;;;;;5054990;28;19915;-53
2023/09/17 11:19:09;;;;;;;;;;;22.00;94.20;;;;;;5055047;28;19909;-50
2023/09/17 11:21:39;;;;;;;;;;;22.00;94.20;;;;;;5039735;28;19917;-51
2023/09/17 11:24:12;;;;;;;;;;;22.00;94.20;;;;;;5044817;28;19944;-52
2023/09/17 11:26:41;;;;;;;;;;;22.00;94.10;;;;;;5034772;28;19916;-50
2023/09/17 11:29:07;;;;;;;;;;;22.00;94.10;;;;;;5015101;28;19976;-49
2023/09/17 11:31:34;;;;;;;;;;;22.00;94.10;;;;;;5032143;28;20386;-53
2023/09/17 11:34:01;;;;;;;;;;;22.00;94.10;;;;;;5053580;28;19917;-47
2023/09/17 11:36:27;;;;;;;;;;;22.00;94.10;;;;;;5055083;28;19963;-49
2023/09/17 11:38:52;;;;;;;;;;;22.00;94.10;;;;;;5054621;28;19913;-49
2023/09/17 11:41:24;;;;;;;;;;;22.00;94.10;;;;;;5045583;28;19913;-51
2023/09/17 11:43:50;;;;;;;;;;;22.00;94.10;;;;;;5034889;28;20008;-53
2023/09/17 11:46:16;;;;;;;;;;;22.00;94.10;;;;;;5036281;28;19920;-50
2023/09/17 11:48:42;;;;;;;;;;;22.00;94.10;;;;;;5034867;28;19925;-53
2023/09/17 11:51:22;;;;;;;;;;;22.00;94.10;;;;;;5034781;28;20402;-51
2023/09/17 11:53:48;;;;;;;;;;;22.00;94.10;;;;;;5033667;28;20350;-53
2023/09/17 11:56:13;;;;;;;;;;;22.00;94.10;;;;;;5034853;28;19913;-53
2023/09/17 11:58:39;;;;;;;;;;;22.00;94.10;;;;;;5033599;28;20331;-50
2023/09/17 12:01:07;;;;;;;;;;;22.00;94.10;;;;;;5037357;28;19956;-50
2023/09/17 12:03:33;;;;;;;;;;;22.00;94.10;;;;;;5020945;28;19920;-52
2023/09/17 12:05:59;;;;;;;;;;;22.00;94.10;;;;;;5051969;28;20015;-49
2023/09/17 12:08:24;;;;;;;;;;;22.00;94.10;;;;;;5052935;28;19923;-53
2023/09/17 12:10:56;;;;;;;;;;;22.00;94.30;;;;;;5054366;28;19930;-48
2023/09/17 12:13:23;;;;;;;;;;;22.00;94.10;;;;;;5050559;28;19914;-52
2023/09/17 12:15:49;;;;;;;;;;;22.00;94.10;;;;;;5053766;28;19909;-48
2023/09/17 12:18:16;;;;;;;;;;;22.00;94.10;;;;;;5049651;28;19921;-52
2023/09/17 12:20:59;;;;;;;;;;;22.00;94.10;;;;;;5034485;28;20387;-50
2023/09/17 12:23:41;;;;;;;;;;;22.00;94.10;;;;;;5045516;28;19912;-47
2023/09/17 12:26:07;;;;;;;;;;;22.00;94.10;;;;;;5014263;28;20276;-49
2023/09/17 12:28:32;;;;;;;;;;;22.00;94.10;;;;;;5036664;28;19924;-49
2023/09/17 12:30:58;;;;;;;;;;;22.00;94.10;;;;;;5037816;28;20364;-50
2023/09/17 12:33:24;;;;;;;;;;;22.00;94.10;;;;;;5034170;28;19915;-50
2023/09/17 12:35:50;;;;;;;;;;;22.00;94.10;;;;;;5036679;28;20455;-53
2023/09/17 12:38:16;;;;;;;;;;;22.00;94.10;;;;;;5054027;28;19955;-48
2023/09/17 12:40:41;;;;;;;;;;;22.00;94.00;;;;;;5046115;28;19917;-52
2023/09/17 12:43:08;;;;;;;;;;;22.00;94.00;;;;;;5034147;28;19913;-48
2023/09/17 12:45:33;;;;;;;;;;;22.00;94.00;;;;;;5033793;28;19917;-51
2023/09/17 12:47:59;;;;;;;;;;;22.00;94.00;;;;;;5033785;28;19956;-52
2023/09/17 12:50:26;;;;;;;;;;;22.00;94.00;;;;;;5032917;28;19913;-53
2023/09/17 12:52:52;;;;;;;;;;;22.00;94.00;;;;;;5034281;28;19916;-51
2023/09/17 12:55:17;;;;;;;;;;;22.00;94.00;;;;;;5033857;28;19909;-52
2023/09/17 12:57:47;;;;;;;;;;;22.00;94.00;;;;;;5033849;28;20403;-50
2023/09/17 13:00:13;;;;;;;;;;;22.00;94.00;;;;;;5032074;28;19909;-50
2023/09/17 13:02:39;;;;;;;;;;;22.00;94.00;;;;;;5042838;28;20339;-50
2023/09/17 13:05:05;;;;;;;;;;;22.00;94.00;;;;;;5051820;28;20004;-55
2023/09/17 13:07:30;;;;;;;;;;;22.00;94.00;;;;;;5053578;28;20340;-52
2023/09/17 13:09:57;;;;;;;;;;;22.00;94.00;;;;;;5054758;28;20384;-52
2023/09/17 13:12:23;;;;;;;;;;;22.00;94.00;;;;;;5040854;28;19916;-54
2023/09/17 13:14:51;;;;;;;;;;;22.00;94.00;;;;;;5036473;28;19919;-50
2023/09/17 13:17:17;;;;;;;;;;;22.00;94.00;;;;;;5037754;28;19909;-52
2023/09/17 13:19:42;;;;;;;;;;;22.00;94.00;;;;;;5020116;28;19915;-52
2023/09/17 13:22:08;;;;;;;;;;;22.00;94.00;;;;;;5044051;28;20404;-49
2023/09/17 13:24:34;;;;;;;;;;;22.00;94.00;;;;;;5035329;28;19908;-51
2023/09/17 13:27:05;;;;;;;;;;;22.00;94.00;;;;;;5057030;28;20356;-51
2023/09/17 13:29:38;;;;;;;;;;;22.00;94.00;;;;;;5057372;28;19913;-51
2023/09/17 13:32:06;;;;;;;;;;;22.00;94.00;;;;;;5052944;28;19996;-51
2023/09/17 13:34:32;;;;;;;;;;;22.00;94.00;;;;;;5048256;28;19909;-54
2023/09/17 13:36:57;;;;;;;;;;;22.00;94.00;;;;;;5037072;28;19916;-49
2023/09/17 13:39:23;;;;;;;;;;;22.00;94.00;;;;;;5027080;28;19960;-55
2023/09/17 13:41:49;;;;;;;;;;;22.00;94.00;;;;;;5037134;28;19913;-53
2023/09/17 13:44:15;;;;;;;;;;;22.00;94.00;;;;;;5038061;28;19909;-54
2023/09/17 13:46:46;;;;;;;;;;;22.00;94.00;;;;;;5035445;28;19909;-50
2023/09/17 13:49:11;;;;;;;;;;;22.00;94.00;;;;;;5050054;28;19929;-55
2023/09/17 13:51:37;;;;;;;;;;;22.00;94.00;;;;;;5037032;28;20275;-54
2023/09/17 13:54:03;;;;;;;;;;;22.00;93.90;;;;;;5036987;28;19944;-54
2023/09/17 13:56:28;;;;;;;;;;;22.00;93.90;;;;;;5046188;28;19917;-54
2023/09/17 13:58:54;;;;;;;;;;;22.00;93.90;;;;;;5040634;28;19932;-53
2023/09/17 14:01:20;;;;;;;;;;;22.00;93.90;;;;;;5039063;28;19913;-54
2023/09/17 14:03:45;;;;;;;;;;;22.00;93.90;;;;;;5040875;28;19917;-53
2023/09/17 14:06:11;;;;;;;;;;;22.00;93.90;;;;;;5037061;28;19909;-51
2023/09/17 14:08:36;;;;;;;;;;;22.00;93.90;;;;;;5045602;28;19920;-51
2023/09/17 14:11:02;;;;;;;;;;;22.10;93.90;;;;;;5056547;28;19909;-51